createdAt,value
2023-01-17T00:00:48.143Z,3.92
2023-01-17T00:03:14.545Z,6.90
2023-01-17T00:05:59.195Z,5.40
2023-01-17T00:08:44.010Z,4.72
2023-01-17T00:11:11.019Z,6.50
2023-01-17T00:13:37.763Z,5.38
2023-01-17T00:16:04.309Z,5.50
2023-01-17T00:18:30.707Z,4.68
2023-01-17T00:21:15.446Z,4.80
2023-01-17T00:24:00.178Z,4.30
2023-01-17T00:26:26.599Z,4.25
2023-01-17T00:28:52.994Z,4.57
2023-01-17T00:31:20.057Z,5.57
2023-01-17T00:33:46.559Z,4.95
2023-01-17T00:36:13.023Z,6.10
2023-01-17T00:38:39.737Z,4.22
2023-01-17T00:41:11.541Z,4.88
2023-01-17T00:43:56.608Z,3.67
2023-01-17T00:46:41.611Z,9.30
2023-01-17T00:49:26.776Z,4.28
2023-01-17T00:52:11.891Z,5.75
2023-01-17T00:54:56.673Z,6.95
2023-01-17T00:57:41.921Z,3.72
2023-01-17T01:00:27.296Z,5.90
2023-01-17T01:03:12.406Z,6.75
2023-01-17T01:05:57.425Z,5.85
2023-01-17T01:08:47.675Z,3.20
2023-01-17T01:11:35.039Z,4.43
2023-01-17T01:14:19.889Z,3.42
2023-01-17T01:17:05.410Z,4.95
2023-01-17T01:19:50.813Z,7.28
2023-01-17T01:22:35.941Z,5.68
2023-01-17T01:25:20.957Z,2.53
2023-01-17T01:28:06.066Z,4.72
2023-01-17T01:30:51.015Z,4.45
2023-01-17T01:33:20.005Z,4.47
2023-01-17T01:35:51.123Z,3.70
2023-01-17T01:38:18.854Z,4.25
2023-01-17T01:40:48.204Z,4.50
2023-01-17T01:43:16.407Z,4.93
2023-01-17T01:45:47.285Z,5.43
2023-01-17T01:48:30.043Z,2.75
2023-01-17T01:50:56.728Z,4.65
2023-01-17T01:53:23.079Z,2.50
2023-01-17T01:55:50.912Z,4.53
2023-01-17T01:58:21.468Z,4.00
2023-01-17T02:00:47.967Z,2.78
2023-01-17T02:03:21.664Z,5.30
2023-01-17T02:05:48.082Z,5.28
2023-01-17T02:08:19.211Z,3.97
2023-01-17T02:10:46.041Z,3.65
2023-01-17T02:13:15.623Z,3.38
2023-01-17T02:16:06.017Z,5.63
2023-01-17T02:18:38.337Z,5.70
2023-01-17T02:21:24.738Z,5.07
2023-01-17T02:24:21.210Z,3.53
2023-01-17T02:27:30.505Z,3.00
2023-01-17T02:30:34.396Z,5.18
2023-01-17T02:33:43.541Z,5.23
2023-01-17T02:36:33.133Z,3.25
2023-01-17T02:39:07.235Z,3.30
2023-01-17T02:41:37.415Z,4.18
2023-01-17T02:44:04.705Z,3.90
2023-01-17T02:46:31.090Z,5.03
2023-01-17T02:48:57.773Z,4.07
2023-01-17T02:51:32.086Z,3.10
2023-01-17T02:54:30.809Z,5.13
2023-01-17T02:57:11.547Z,2.88
2023-01-17T02:59:53.091Z,5.32
2023-01-17T03:02:47.789Z,4.32
2023-01-17T03:05:20.678Z,3.67
2023-01-17T03:07:48.272Z,4.40
2023-01-17T03:10:16.669Z,4.13
2023-01-17T03:12:43.581Z,4.25
2023-01-17T03:15:12.785Z,2.92
2023-01-17T03:17:41.364Z,3.72
2023-01-17T03:20:08.439Z,2.03
2023-01-17T03:22:34.798Z,3.60
2023-01-17T03:25:01.231Z,2.05
2023-01-17T03:27:27.572Z,2.85
2023-01-17T03:29:53.993Z,4.22
2023-01-17T03:32:20.374Z,6.55
2023-01-17T03:34:46.796Z,2.78
2023-01-17T03:37:13.147Z,4.03
2023-01-17T03:39:39.515Z,3.67
2023-01-17T03:42:06.049Z,2.70
2023-01-17T03:44:34.037Z,4.32
2023-01-17T03:47:00.436Z,3.97
2023-01-17T03:49:26.830Z,2.20
2023-01-17T03:51:53.185Z,2.90
2023-01-17T03:54:19.540Z,2.85
2023-01-17T03:56:45.934Z,3.33
2023-01-17T03:59:13.270Z,6.13
2023-01-17T04:01:39.930Z,3.20
2023-01-17T04:04:06.372Z,2.78
2023-01-17T04:06:32.722Z,3.63
2023-01-17T04:08:59.099Z,3.57
2023-01-17T04:11:25.435Z,3.20
2023-01-17T04:13:51.813Z,2.95
2023-01-17T04:16:18.636Z,2.90
2023-01-17T04:18:45.070Z,3.53
2023-01-17T04:21:11.745Z,3.00
2023-01-17T04:23:38.354Z,2.90
2023-01-17T04:26:04.825Z,7.40
2023-01-17T04:28:31.702Z,2.72
2023-01-17T04:30:59.537Z,2.72
2023-01-17T04:33:25.880Z,3.88
2023-01-17T04:35:55.375Z,3.45
2023-01-17T04:38:23.188Z,4.00
2023-01-17T04:40:50.576Z,2.47
2023-01-17T04:43:17.269Z,3.40
2023-01-17T04:45:43.854Z,4.25
2023-01-17T04:48:12.521Z,8.05
2023-01-17T04:50:39.298Z,4.65
2023-01-17T04:53:05.696Z,4.80
2023-01-17T04:55:32.076Z,2.72
2023-01-17T04:57:58.459Z,6.38
2023-01-17T05:00:24.919Z,3.97
2023-01-17T05:02:51.987Z,4.85
2023-01-17T05:05:18.405Z,3.00
2023-01-17T05:07:44.747Z,2.85
2023-01-17T05:10:11.328Z,3.53
2023-01-17T05:12:37.732Z,3.25
2023-01-17T05:15:04.567Z,3.95
2023-01-17T05:17:30.951Z,4.25
2023-01-17T05:19:57.277Z,3.20
2023-01-17T05:22:23.604Z,3.90
2023-01-17T05:24:49.949Z,4.57
2023-01-17T05:27:16.325Z,5.63
2023-01-17T05:29:42.891Z,5.15
2023-01-17T05:32:11.219Z,6.05
2023-01-17T05:34:37.666Z,5.30
2023-01-17T05:37:04.037Z,7.95
2023-01-17T05:39:30.980Z,6.30
2023-01-17T05:41:57.618Z,6.47
2023-01-17T05:44:24.240Z,8.07
2023-01-17T05:46:50.570Z,6.07
2023-01-17T05:49:16.902Z,8.68
2023-01-17T05:51:43.277Z,8.45
2023-01-17T05:54:09.720Z,8.65
2023-01-17T05:56:36.116Z,7.18
2023-01-17T05:59:02.523Z,7.93
2023-01-17T06:01:28.947Z,8.68
2023-01-17T06:03:55.266Z,7.32
2023-01-17T06:06:21.771Z,7.03
2023-01-17T06:08:48.178Z,5.10
2023-01-17T06:11:14.641Z,9.30
2023-01-17T06:13:40.986Z,10.60
2023-01-17T06:16:07.725Z,8.25
2023-01-17T06:18:34.126Z,6.20
2023-01-17T06:21:00.513Z,6.35
2023-01-17T06:23:28.192Z,8.10
2023-01-17T06:25:54.596Z,8.90
2023-01-17T06:28:22.415Z,7.63
2023-01-17T06:30:49.303Z,6.85
2023-01-17T06:33:16.049Z,7.38
2023-01-17T06:35:50.287Z,5.65
2023-01-17T06:38:17.166Z,6.07
2023-01-17T06:40:43.519Z,10.45
2023-01-17T06:43:09.889Z,7.85
2023-01-17T06:45:36.488Z,7.70
2023-01-17T06:48:05.920Z,8.30
2023-01-17T06:50:33.093Z,7.57
2023-01-17T06:53:04.229Z,6.78
2023-01-17T06:55:33.452Z,5.32
2023-01-17T06:58:00.604Z,5.97
2023-01-17T07:00:27.377Z,8.32
2023-01-17T07:02:53.997Z,6.82
2023-01-17T07:05:20.725Z,7.13
2023-01-17T07:07:47.325Z,7.35
2023-01-17T07:10:14.523Z,6.00
2023-01-17T07:12:40.980Z,6.97
2023-01-17T07:15:08.205Z,8.50
2023-01-17T07:17:35.021Z,8.90
2023-01-17T07:20:01.607Z,14.23
2023-01-17T07:22:27.963Z,11.20
2023-01-17T07:25:00.038Z,12.02
2023-01-17T07:27:27.770Z,7.85
2023-01-17T07:29:54.467Z,6.25
2023-01-17T07:32:20.943Z,4.70
2023-01-17T07:34:47.418Z,4.75
2023-01-17T07:37:15.352Z,4.88
2023-01-17T07:39:41.969Z,7.00
2023-01-17T07:42:09.038Z,4.45
2023-01-17T07:44:35.375Z,5.43
2023-01-17T07:47:01.754Z,4.20
2023-01-17T07:49:30.064Z,5.63
2023-01-17T07:51:56.436Z,5.57
2023-01-17T07:54:22.838Z,5.10
2023-01-17T07:56:49.252Z,7.95
2023-01-17T07:59:15.654Z,12.65
2023-01-17T08:01:42.173Z,10.75
2023-01-17T08:04:09.224Z,11.30
2023-01-17T08:06:37.745Z,7.78
2023-01-17T08:09:04.059Z,11.57
2023-01-17T08:11:30.509Z,7.85
2023-01-17T08:14:00.067Z,6.63
2023-01-17T08:16:28.443Z,7.70
2023-01-17T08:18:55.755Z,6.47
2023-01-17T08:21:22.195Z,7.05
2023-01-17T08:23:49.743Z,6.80
2023-01-17T08:26:22.119Z,6.50
2023-01-17T08:29:00.278Z,5.85
2023-01-17T08:31:27.921Z,6.68
2023-01-17T08:33:54.318Z,7.15
2023-01-17T08:36:20.830Z,20.17
2023-01-17T08:38:47.393Z,14.00
2023-01-17T08:41:13.715Z,9.15
2023-01-17T08:43:40.433Z,7.95
2023-01-17T08:46:07.053Z,12.27
2023-01-17T08:48:33.545Z,10.73
2023-01-17T08:51:03.647Z,26.02
2023-01-17T08:53:30.248Z,21.55
2023-01-17T08:56:00.118Z,11.13
2023-01-17T08:58:30.296Z,13.98
2023-01-17T09:01:04.940Z,12.45
2023-01-17T09:03:32.237Z,10.43
2023-01-17T09:06:05.734Z,8.18
2023-01-17T09:08:32.625Z,6.75
2023-01-17T09:10:58.983Z,9.80
2023-01-17T09:13:25.377Z,9.02
2023-01-17T09:15:56.149Z,10.43
2023-01-17T09:18:22.520Z,6.18
2023-01-17T09:20:48.893Z,7.05
2023-01-17T09:23:15.266Z,7.72
2023-01-17T09:25:44.534Z,8.40
2023-01-17T09:28:10.887Z,6.22
2023-01-17T09:30:37.271Z,7.95
2023-01-17T09:33:03.788Z,9.95
2023-01-17T09:35:31.227Z,10.95
2023-01-17T09:37:58.202Z,7.25
2023-01-17T09:40:25.275Z,9.38
2023-01-17T09:42:54.261Z,7.03
2023-01-17T09:45:21.063Z,6.47
2023-01-17T09:47:51.248Z,7.43
2023-01-17T09:50:29.128Z,10.65
2023-01-17T09:53:01.237Z,8.52
2023-01-17T09:55:37.097Z,5.68
2023-01-17T09:58:07.745Z,4.60
2023-01-17T10:00:37.373Z,5.18
2023-01-17T10:03:41.153Z,8.23
2023-01-17T10:06:24.327Z,6.35
2023-01-17T10:08:59.575Z,5.28
2023-01-17T10:11:51.977Z,7.43
2023-01-17T10:14:42.618Z,3.17
2023-01-17T10:17:26.511Z,5.47
2023-01-17T10:20:12.954Z,6.70
2023-01-17T10:23:03.900Z,2.97
2023-01-17T10:25:49.664Z,6.50
2023-01-17T10:28:19.646Z,3.92
2023-01-17T10:30:49.202Z,3.63
2023-01-17T10:33:30.116Z,5.13
2023-01-17T10:36:03.676Z,5.78
2023-01-17T10:38:35.900Z,8.45
2023-01-17T10:41:13.893Z,5.55
2023-01-17T10:43:55.975Z,5.80
2023-01-17T10:46:28.556Z,5.93
2023-01-17T10:48:55.164Z,8.25
2023-01-17T10:51:28.764Z,7.20
2023-01-17T10:54:50.768Z,6.43
2023-01-17T10:57:22.651Z,4.72
2023-01-17T10:59:49.640Z,7.57
2023-01-17T11:02:23.799Z,5.35
2023-01-17T11:04:54.267Z,5.65
2023-01-17T11:07:25.752Z,5.90
2023-01-17T11:09:54.447Z,7.43
2023-01-17T11:12:53.452Z,4.85
2023-01-17T11:15:25.731Z,3.75
2023-01-17T11:18:02.495Z,5.18
2023-01-17T11:20:40.982Z,3.80
2023-01-17T11:23:16.701Z,4.70
2023-01-17T11:25:53.007Z,7.43
2023-01-17T11:28:26.135Z,6.57
2023-01-17T11:30:58.464Z,8.87
2023-01-17T11:33:45.619Z,7.25
2023-01-17T11:36:20.054Z,8.32
2023-01-17T11:39:05.840Z,5.63
2023-01-17T11:41:37.091Z,5.47
2023-01-17T11:44:20.749Z,4.90
2023-01-17T11:46:47.157Z,4.97
2023-01-17T11:49:25.012Z,3.22
2023-01-17T11:51:56.036Z,3.92
2023-01-17T11:54:24.951Z,2.53
2023-01-17T11:56:57.515Z,3.75
2023-01-17T11:59:24.891Z,3.78
2023-01-17T12:02:09.695Z,3.58
2023-01-17T12:04:40.009Z,4.07
2023-01-17T12:07:31.087Z,5.18
2023-01-17T12:10:06.893Z,3.55
2023-01-17T12:12:57.582Z,3.00
2023-01-17T12:16:01.917Z,5.60
2023-01-17T12:18:42.972Z,2.75
2023-01-17T12:21:17.376Z,5.40
2023-01-17T12:24:14.370Z,7.63
2023-01-17T12:26:45.025Z,4.18
2023-01-17T12:29:33.109Z,4.47
2023-01-17T12:32:17.841Z,5.30
2023-01-17T12:34:53.401Z,7.00
2023-01-17T12:37:45.317Z,6.45
2023-01-17T12:40:17.577Z,9.65
2023-01-17T12:42:49.980Z,8.27
2023-01-17T12:45:22.762Z,4.53
2023-01-17T12:47:54.441Z,3.10
2023-01-17T12:50:28.608Z,5.45
2023-01-17T12:53:07.124Z,2.38
2023-01-17T12:55:43.165Z,3.28
2023-01-17T12:58:20.604Z,2.83
2023-01-17T13:00:51.300Z,3.47
2023-01-17T13:03:27.210Z,3.20
2023-01-17T13:05:55.294Z,3.20
2023-01-17T13:08:27.317Z,3.58
2023-01-17T13:10:57.565Z,3.00
2023-01-17T13:13:26.088Z,2.92
2023-01-17T13:15:58.193Z,2.65
2023-01-17T13:18:26.897Z,3.47
2023-01-17T13:21:08.551Z,3.70
2023-01-17T13:24:16.995Z,4.07
2023-01-17T13:26:55.687Z,2.20
2023-01-17T13:29:40.094Z,3.70
2023-01-17T13:35:01.736Z,3.45
2023-01-17T13:37:43.881Z,3.25
2023-01-17T13:40:55.357Z,4.57
2023-01-17T13:43:25.714Z,1.75
2023-01-17T13:45:54.326Z,3.42
2023-01-17T13:48:21.090Z,2.30
2023-01-17T13:51:02.606Z,3.70
2023-01-17T13:53:36.701Z,2.45
2023-01-17T13:56:18.253Z,4.10
2023-01-17T13:58:49.779Z,2.65
2023-01-17T14:01:44.930Z,3.30
2023-01-17T14:04:12.502Z,3.78
2023-01-17T14:06:40.653Z,3.03
2023-01-17T14:09:12.744Z,5.10
2023-01-17T14:12:05.032Z,3.90
2023-01-17T14:14:35.265Z,3.30
2023-01-17T14:17:20.330Z,4.40
2023-01-17T14:20:10.216Z,5.22
2023-01-17T14:22:39.316Z,3.83
2023-01-17T14:25:11.434Z,6.10
2023-01-17T14:27:43.443Z,3.13
2023-01-17T14:30:25.860Z,5.90
2023-01-17T14:33:01.333Z,8.68
2023-01-17T14:35:30.634Z,5.28
2023-01-17T14:37:57.676Z,3.17
2023-01-17T14:40:26.705Z,4.43
2023-01-17T14:42:57.990Z,3.80
2023-01-17T14:45:28.686Z,5.40
2023-01-17T14:47:56.979Z,5.38
2023-01-17T14:50:26.904Z,6.28
2023-01-17T14:53:16.241Z,4.32
2023-01-17T14:55:48.329Z,4.90
2023-01-17T14:58:18.311Z,3.83
2023-01-17T15:00:45.186Z,7.47
2023-01-17T15:03:12.798Z,6.38
2023-01-17T15:05:44.476Z,6.88
2023-01-17T15:08:16.103Z,3.97
2023-01-17T15:10:49.587Z,4.45
2023-01-17T15:13:19.935Z,3.33
2023-01-17T15:15:48.950Z,3.85
2023-01-17T15:18:25.681Z,3.55
2023-01-17T15:21:02.921Z,4.88
2023-01-17T15:23:34.422Z,3.38
2023-01-17T15:26:02.093Z,6.13
2023-01-17T15:28:28.978Z,7.10
2023-01-17T15:31:13.476Z,4.53
2023-01-17T15:33:44.200Z,3.28
2023-01-17T15:36:15.578Z,3.60
2023-01-17T15:38:50.200Z,5.07
2023-01-17T15:41:17.151Z,3.00
2023-01-17T15:43:44.540Z,3.45
2023-01-17T15:46:22.751Z,4.00
2023-01-17T15:48:51.529Z,4.18
2023-01-17T15:51:31.756Z,3.92
2023-01-17T15:53:58.370Z,2.88
2023-01-17T15:56:32.572Z,3.90
2023-01-17T15:59:21.462Z,3.38
2023-01-17T16:01:55.685Z,7.47
2023-01-17T16:04:33.111Z,4.07
2023-01-17T16:07:22.537Z,4.90
2023-01-17T16:09:49.699Z,3.90
2023-01-17T16:12:16.335Z,3.55
2023-01-17T16:14:59.542Z,2.13
2023-01-17T16:17:33.186Z,2.75
2023-01-17T16:19:59.728Z,3.50
2023-01-17T16:22:26.829Z,7.38
2023-01-17T16:24:55.810Z,4.95
2023-01-17T16:27:22.116Z,5.28
2023-01-17T16:29:48.639Z,3.25
2023-01-17T16:32:15.369Z,4.47
2023-01-17T16:34:42.082Z,3.78
2023-01-17T16:37:10.124Z,5.72
2023-01-17T16:39:36.737Z,4.45
2023-01-17T16:42:03.260Z,4.88
2023-01-17T16:44:30.584Z,4.15
2023-01-17T16:47:01.565Z,4.68
2023-01-17T16:49:30.967Z,4.70
2023-01-17T16:51:57.443Z,3.78
2023-01-17T16:54:23.933Z,4.75
2023-01-17T16:56:50.384Z,5.28
2023-01-17T16:59:16.698Z,3.83
2023-01-17T17:01:43.185Z,4.57
2023-01-17T17:04:12.821Z,4.18
2023-01-17T17:06:39.760Z,3.15
2023-01-17T17:09:06.082Z,3.38
2023-01-17T17:11:32.428Z,4.63
2023-01-17T17:13:58.741Z,3.30
2023-01-17T17:16:33.754Z,3.92
2023-01-17T17:19:02.825Z,5.28
2023-01-17T17:21:29.857Z,5.07
2023-01-17T17:23:58.414Z,3.13
2023-01-17T17:26:30.935Z,6.13
2023-01-17T17:28:57.983Z,5.10
2023-01-17T17:31:26.295Z,4.18
2023-01-17T17:33:52.767Z,3.67
2023-01-17T17:36:19.128Z,2.97
2023-01-17T17:38:50.583Z,3.10
2023-01-17T17:41:22.744Z,2.95
2023-01-17T17:43:49.399Z,3.33
2023-01-17T17:46:15.855Z,4.97
2023-01-17T17:48:42.223Z,2.85
2023-01-17T17:51:21.495Z,3.20
2023-01-17T17:53:47.822Z,3.25
2023-01-17T17:56:14.149Z,4.32
2023-01-17T17:58:40.491Z,3.17
2023-01-17T18:01:06.958Z,3.33
2023-01-17T18:03:33.822Z,3.30
2023-01-17T18:06:08.135Z,3.30
2023-01-17T18:08:35.503Z,3.67
2023-01-17T18:11:11.192Z,4.15
2023-01-17T18:13:38.851Z,3.13
2023-01-17T18:16:13.202Z,6.35
2023-01-17T18:18:43.452Z,3.13
2023-01-17T18:21:16.943Z,6.07
2023-01-17T18:23:44.558Z,4.97
2023-01-17T18:26:38.347Z,4.22
2023-01-17T18:29:06.144Z,4.97
2023-01-17T18:31:33.397Z,3.63
2023-01-17T18:34:03.546Z,7.03
2023-01-17T18:36:29.899Z,3.00
2023-01-17T18:38:56.659Z,3.47
2023-01-17T18:41:27.931Z,5.43
2023-01-17T18:43:57.402Z,5.10
2023-01-17T18:46:25.848Z,3.22
2023-01-17T18:48:57.271Z,6.10
2023-01-17T18:51:24.033Z,2.85
2023-01-17T18:53:50.637Z,4.78
2023-01-17T18:56:21.528Z,3.40
2023-01-17T18:58:49.335Z,4.95
2023-01-17T19:01:22.216Z,4.18
2023-01-17T19:03:50.814Z,4.23
2023-01-17T19:06:19.803Z,5.53
2023-01-17T19:08:46.544Z,7.28
2023-01-17T19:11:12.926Z,4.80
2023-01-17T19:13:40.365Z,4.20
2023-01-17T19:16:08.804Z,3.20
2023-01-17T19:18:35.443Z,4.32
2023-01-17T19:21:10.142Z,3.17
2023-01-17T19:23:37.066Z,5.35
2023-01-17T19:26:04.659Z,4.07
2023-01-17T19:28:31.432Z,2.60
2023-01-17T19:31:05.705Z,4.38
2023-01-17T19:33:34.087Z,2.80
2023-01-17T19:36:01.153Z,4.05
2023-01-17T19:38:27.723Z,3.58
2023-01-17T19:40:54.209Z,2.63
2023-01-17T19:43:20.963Z,2.80
2023-01-17T19:45:58.460Z,2.20
2023-01-17T19:48:26.193Z,3.30
2023-01-17T19:50:54.383Z,2.55
2023-01-17T19:53:23.423Z,2.83
2023-01-17T19:55:49.931Z,3.17
2023-01-17T19:58:16.260Z,2.80
2023-01-17T20:00:46.639Z,3.97
2023-01-17T20:03:13.409Z,2.80
2023-01-17T20:05:39.803Z,3.22
2023-01-17T20:08:06.327Z,3.65
2023-01-17T20:10:32.743Z,2.70
2023-01-17T20:12:59.065Z,2.30
2023-01-17T20:15:26.392Z,5.78
2023-01-17T20:17:53.159Z,4.05
2023-01-17T20:20:19.579Z,2.97
2023-01-17T20:22:45.919Z,3.80
2023-01-17T20:25:12.468Z,2.50
2023-01-17T20:27:40.561Z,4.25
2023-01-17T20:30:19.733Z,3.88
2023-01-17T20:32:46.412Z,2.92
2023-01-17T20:35:13.343Z,3.63
2023-01-17T20:37:39.644Z,3.08
2023-01-17T20:40:07.086Z,3.65
2023-01-17T20:42:36.238Z,4.38
2023-01-17T20:45:02.761Z,3.97
2023-01-17T20:47:29.538Z,5.53
2023-01-17T20:49:55.893Z,3.08
2023-01-17T20:52:22.242Z,3.88
2023-01-17T20:54:49.595Z,4.22
2023-01-17T20:57:15.915Z,3.97
2023-01-17T20:59:42.300Z,4.07
2023-01-17T21:02:10.652Z,6.35
2023-01-17T21:04:37.174Z,2.97
2023-01-17T21:07:03.680Z,3.58
2023-01-17T21:09:30.078Z,3.70
2023-01-17T21:12:00.952Z,3.85
2023-01-17T21:14:28.633Z,5.05
2023-01-17T21:16:55.024Z,3.25
2023-01-17T21:19:22.723Z,2.88
2023-01-17T21:21:49.928Z,4.90
2023-01-17T21:24:18.713Z,2.97
2023-01-17T21:26:46.371Z,3.25
2023-01-17T21:29:15.679Z,3.53
2023-01-17T21:31:42.662Z,3.97
2023-01-17T21:34:10.703Z,2.85
2023-01-17T21:36:39.111Z,3.10
2023-01-17T21:39:12.350Z,3.15
2023-01-17T21:41:40.092Z,2.22
2023-01-17T21:44:10.946Z,5.50
2023-01-17T21:46:38.670Z,4.93
2023-01-17T21:49:05.531Z,3.15
2023-01-17T21:51:50.587Z,2.45
2023-01-17T21:54:16.919Z,3.00
2023-01-17T21:57:01.864Z,3.58
2023-01-17T21:59:30.879Z,3.17
2023-01-17T22:01:58.100Z,4.53
2023-01-17T22:04:25.703Z,2.38
2023-01-17T22:06:52.071Z,2.60
2023-01-17T22:09:18.503Z,4.07
2023-01-17T22:11:44.917Z,2.40
2023-01-17T22:14:11.503Z,3.03
2023-01-17T22:16:37.856Z,3.40
2023-01-17T22:19:04.259Z,3.03
2023-01-17T22:21:30.641Z,2.83
2023-01-17T22:23:59.024Z,3.08
2023-01-17T22:26:27.873Z,2.20
2023-01-17T22:28:54.859Z,4.32
2023-01-17T22:31:24.192Z,4.32
2023-01-17T22:33:58.881Z,4.35
2023-01-17T22:36:25.540Z,3.30
2023-01-17T22:38:52.016Z,2.90
2023-01-17T22:41:20.412Z,4.18
2023-01-17T22:43:48.579Z,2.88
2023-01-17T22:46:18.698Z,4.05
2023-01-17T22:48:45.426Z,2.75
2023-01-17T22:51:14.324Z,2.65
2023-01-17T22:53:51.788Z,2.55
2023-01-17T22:56:23.568Z,2.00
2023-01-17T22:58:50.313Z,3.05
2023-01-17T23:01:21.653Z,2.88
2023-01-17T23:03:56.760Z,3.85
2023-01-17T23:06:34.750Z,7.15
2023-01-17T23:09:04.192Z,2.47
2023-01-17T23:11:46.095Z,3.30
2023-01-17T23:14:29.939Z,4.32
2023-01-17T23:17:17.805Z,3.70
2023-01-17T23:19:49.405Z,4.13
2023-01-17T23:22:20.763Z,2.83
2023-01-17T23:25:01.511Z,3.22
2023-01-17T23:27:50.980Z,3.70
2023-01-17T23:30:19.992Z,2.40
2023-01-17T23:32:54.952Z,2.45
2023-01-17T23:35:24.333Z,2.63
2023-01-17T23:38:09.083Z,3.78
2023-01-17T23:40:36.661Z,2.70
2023-01-17T23:43:22.111Z,5.20
2023-01-17T23:45:49.833Z,3.72
2023-01-17T23:48:16.788Z,2.70
2023-01-17T23:50:45.106Z,3.33
2023-01-17T23:53:21.720Z,4.32
2023-01-17T23:55:50.998Z,3.08
2023-01-17T23:58:18.654Z,3.00
